createdAt,value
2022-08-04T00:00:14.808Z,3.67
2022-08-04T00:03:19.470Z,3.67
2022-08-04T00:06:23.031Z,3.70
2022-08-04T00:08:57.408Z,3.90
2022-08-04T00:11:30.751Z,3.87
2022-08-04T00:14:11.552Z,3.80
2022-08-04T00:16:58.123Z,3.70
2022-08-04T00:19:40.741Z,4.00
2022-08-04T00:22:11.823Z,3.37
2022-08-04T00:24:40.336Z,3.63
2022-08-04T00:27:08.869Z,3.97
2022-08-04T00:29:39.472Z,3.73
2022-08-04T00:32:08.705Z,3.43
2022-08-04T00:34:37.339Z,3.77
2022-08-04T00:37:06.771Z,3.60
2022-08-04T00:39:34.934Z,3.50
2022-08-04T00:42:23.035Z,3.43
2022-08-04T00:45:30.069Z,3.77
2022-08-04T00:48:38.602Z,3.57
2022-08-04T00:51:15.166Z,3.90
2022-08-04T00:54:20.647Z,3.63
2022-08-04T00:57:33.644Z,3.87
2022-08-04T01:00:10.828Z,3.60
2022-08-04T01:03:07.984Z,3.50
2022-08-04T01:05:47.382Z,3.50
2022-08-04T01:08:55.390Z,3.73
2022-08-04T01:12:02.374Z,3.70
2022-08-04T01:15:10.458Z,3.70
2022-08-04T01:17:43.358Z,3.57
2022-08-04T01:20:17.151Z,3.70
2022-08-04T01:23:20.840Z,3.90
2022-08-04T01:26:42.002Z,3.77
2022-08-04T01:29:10.192Z,3.70
2022-08-04T01:32:03.522Z,3.80
2022-08-04T01:34:42.755Z,3.73
2022-08-04T01:37:30.803Z,3.60
2022-08-04T01:40:08.433Z,4.10
2022-08-04T01:42:38.418Z,3.30
2022-08-04T01:45:15.495Z,3.80
2022-08-04T01:47:56.069Z,3.77
2022-08-04T01:50:25.444Z,4.10
2022-08-04T01:52:55.181Z,3.70
2022-08-04T01:55:24.573Z,3.60
2022-08-04T01:58:12.766Z,4.17
2022-08-04T02:00:56.571Z,4.33
2022-08-04T02:04:18.226Z,3.80
2022-08-04T02:07:08.478Z,3.70
2022-08-04T02:10:08.125Z,3.90
2022-08-04T02:12:58.941Z,3.60
2022-08-04T02:16:09.907Z,3.77
2022-08-04T02:18:56.778Z,3.57
2022-08-04T02:21:27.727Z,3.77
2022-08-04T02:24:16.348Z,3.90
2022-08-04T02:26:50.200Z,3.90
2022-08-04T02:29:52.752Z,3.87
2022-08-04T02:32:30.009Z,3.90
2022-08-04T02:35:12.993Z,3.80
2022-08-04T02:37:51.851Z,3.70
2022-08-04T02:40:21.593Z,3.50
2022-08-04T02:42:51.123Z,3.70
2022-08-04T02:45:23.050Z,4.20
2022-08-04T02:48:28.687Z,4.33
2022-08-04T02:50:44.587Z,3.77
2022-08-04T02:53:18.344Z,3.87
2022-08-04T02:55:50.751Z,4.20
2022-08-04T02:58:23.620Z,4.20
2022-08-04T03:00:51.860Z,4.17
2022-08-04T03:03:36.419Z,4.07
2022-08-04T03:06:54.800Z,3.90
2022-08-04T03:09:52.701Z,4.10
2022-08-04T03:13:06.363Z,4.17
2022-08-04T03:15:55.115Z,4.00
2022-08-04T03:18:54.838Z,3.87
2022-08-04T03:22:01.118Z,4.40
2022-08-04T03:24:58.930Z,3.53
2022-08-04T03:27:47.794Z,4.30
2022-08-04T03:30:43.578Z,4.00
2022-08-04T03:34:16.473Z,3.90
2022-08-04T03:37:19.487Z,4.00
2022-08-04T03:40:24.956Z,4.20
2022-08-04T03:43:56.824Z,4.00
2022-08-04T03:46:54.077Z,4.30
2022-08-04T03:49:58.258Z,4.13
2022-08-04T03:53:03.056Z,4.80
2022-08-04T03:56:08.742Z,4.07
2022-08-04T03:58:48.310Z,3.87
2022-08-04T04:02:00.973Z,4.27
2022-08-04T04:04:57.832Z,4.07
2022-08-04T04:08:03.935Z,4.57
2022-08-04T04:11:17.807Z,3.90
2022-08-04T04:14:31.858Z,4.40
2022-08-04T04:17:52.683Z,4.57
2022-08-04T04:21:14.617Z,5.30
2022-08-04T04:24:06.037Z,5.43
2022-08-04T04:26:54.738Z,4.60
2022-08-04T04:30:05.060Z,5.47
2022-08-04T04:33:06.463Z,4.83
2022-08-04T04:35:52.519Z,5.93
2022-08-04T04:38:40.967Z,4.67
2022-08-04T04:41:26.844Z,4.30
2022-08-04T04:44:09.225Z,5.67
2022-08-04T04:46:54.859Z,5.10
2022-08-04T04:49:57.347Z,5.00
2022-08-04T04:52:42.239Z,5.37
2022-08-04T04:55:37.023Z,6.20
2022-08-04T04:58:05.443Z,6.93
2022-08-04T05:00:46.524Z,5.50
2022-08-04T05:04:06.644Z,6.20
2022-08-04T05:07:18.885Z,5.77
2022-08-04T05:10:29.495Z,6.23
2022-08-04T05:14:37.448Z,6.03
2022-08-04T05:16:37.633Z,5.97
2022-08-04T05:19:31.126Z,5.40
2022-08-04T05:22:18.922Z,5.67
2022-08-04T05:25:00.687Z,5.13
2022-08-04T05:28:02.993Z,5.50
2022-08-04T05:30:35.565Z,6.93
2022-08-04T05:33:11.161Z,6.10
2022-08-04T05:36:16.644Z,6.03
2022-08-04T05:38:40.980Z,5.43
2022-08-04T05:41:10.863Z,5.40
2022-08-04T05:43:43.438Z,5.50
2022-08-04T05:46:14.056Z,5.90
2022-08-04T05:48:43.495Z,5.77
2022-08-04T05:51:12.491Z,5.93
2022-08-04T05:53:41.512Z,5.80
2022-08-04T05:56:12.214Z,5.30
2022-08-04T05:58:41.050Z,5.53
2022-08-04T06:01:12.395Z,5.53
2022-08-04T06:03:41.322Z,5.30
2022-08-04T06:06:11.395Z,5.53
2022-08-04T06:08:39.223Z,5.50
2022-08-04T06:11:11.923Z,5.63
2022-08-04T06:14:01.007Z,5.73
2022-08-04T06:16:38.403Z,5.07
2022-08-04T06:20:03.633Z,6.10
2022-08-04T06:22:00.249Z,5.43
2022-08-04T06:24:32.617Z,5.40
2022-08-04T06:27:03.153Z,5.20
2022-08-04T06:29:33.205Z,5.60
2022-08-04T06:32:28.013Z,5.13
2022-08-04T06:34:57.662Z,5.10
2022-08-04T06:37:41.967Z,5.10
2022-08-04T06:40:30.095Z,5.17
2022-08-04T06:43:06.529Z,5.73
2022-08-04T06:45:40.854Z,7.43
2022-08-04T06:48:13.377Z,6.23
2022-08-04T06:51:25.816Z,6.00
2022-08-04T06:53:31.009Z,5.43
2022-08-04T06:56:01.689Z,4.80
2022-08-04T06:58:33.405Z,5.20
2022-08-04T07:01:02.411Z,5.20
2022-08-04T07:03:31.262Z,4.90
2022-08-04T07:06:05.966Z,5.53
2022-08-04T07:08:42.030Z,5.00
2022-08-04T07:11:10.118Z,5.20
2022-08-04T07:13:41.947Z,5.60
2022-08-04T07:16:14.674Z,4.90
2022-08-04T07:18:42.560Z,5.40
2022-08-04T07:21:11.430Z,5.07
2022-08-04T07:23:39.059Z,5.23
2022-08-04T07:26:12.719Z,5.40
2022-08-04T07:28:41.652Z,5.10
2022-08-04T07:31:33.495Z,5.53
2022-08-04T07:34:17.458Z,5.23
2022-08-04T07:36:53.098Z,5.50
2022-08-04T07:39:28.516Z,5.07
2022-08-04T07:42:02.338Z,5.40
2022-08-04T07:44:35.486Z,5.40
2022-08-04T07:47:06.328Z,5.23
2022-08-04T07:49:54.476Z,5.50
2022-08-04T07:52:22.793Z,5.53
2022-08-04T07:54:51.596Z,5.70
2022-08-04T07:57:40.234Z,5.10
2022-08-04T08:00:08.798Z,4.80
2022-08-04T08:02:37.518Z,4.83
2022-08-04T08:05:07.716Z,5.27
2022-08-04T08:07:35.110Z,5.40
2022-08-04T08:10:02.680Z,5.13
2022-08-04T08:12:37.906Z,5.13
2022-08-04T08:15:20.883Z,5.13
2022-08-04T08:20:32.970Z,5.30
2022-08-04T08:23:02.960Z,5.15
2022-08-04T08:25:34.203Z,5.20
2022-08-04T08:28:04.661Z,5.20
2022-08-04T08:30:33.746Z,4.97
2022-08-04T08:33:06.457Z,5.22
2022-08-04T08:35:54.828Z,5.50
2022-08-04T08:39:03.739Z,5.32
2022-08-04T08:42:07.858Z,5.55
2022-08-04T08:44:56.062Z,4.90
2022-08-04T08:48:05.338Z,5.68
2022-08-04T08:50:52.762Z,5.50
2022-08-04T08:53:53.808Z,5.25
2022-08-04T08:56:48.092Z,4.95
2022-08-04T08:59:57.443Z,4.80
2022-08-04T09:02:42.412Z,4.65
2022-08-04T09:05:35.736Z,5.05
2022-08-04T09:08:33.312Z,6.07
2022-08-04T09:11:16.929Z,4.93
2022-08-04T09:14:15.508Z,5.20
2022-08-04T09:17:03.891Z,4.80
2022-08-04T09:19:39.623Z,4.90
2022-08-04T09:22:30.220Z,4.65
2022-08-04T09:25:20.417Z,4.57
2022-08-04T09:28:04.389Z,4.88
2022-08-04T09:30:54.960Z,4.75
2022-08-04T09:33:44.918Z,5.10
2022-08-04T09:36:37.417Z,4.75
2022-08-04T09:39:33.579Z,5.25
2022-08-04T09:42:30.531Z,4.60
2022-08-04T09:45:15.622Z,4.70
2022-08-04T09:48:09.896Z,4.95
2022-08-04T09:50:45.781Z,4.60
2022-08-04T09:53:53.222Z,4.63
2022-08-04T09:56:46.307Z,4.85
2022-08-04T09:59:27.876Z,4.97
2022-08-04T10:02:06.490Z,5.20
2022-08-04T10:04:38.076Z,4.85
2022-08-04T10:07:40.463Z,4.30
2022-08-04T10:10:38.938Z,4.55
2022-08-04T10:13:18.002Z,4.90
2022-08-04T10:16:06.610Z,4.60
2022-08-04T10:18:45.820Z,4.95
2022-08-04T10:21:27.796Z,4.47
2022-08-04T10:24:33.032Z,4.60
2022-08-04T10:27:12.502Z,4.50
2022-08-04T10:29:47.575Z,4.78
2022-08-04T10:32:43.138Z,4.47
2022-08-04T10:35:22.210Z,4.07
2022-08-04T10:38:25.139Z,4.60
2022-08-04T10:41:04.214Z,4.40
2022-08-04T10:44:04.659Z,4.22
2022-08-04T10:46:43.984Z,4.30
2022-08-04T10:49:31.292Z,4.60
2022-08-04T10:52:32.330Z,4.10
2022-08-04T10:56:06.609Z,4.10
2022-08-04T10:58:47.149Z,4.45
2022-08-04T11:02:00.034Z,4.35
2022-08-04T11:05:18.103Z,4.40
2022-08-04T11:07:50.437Z,4.10
2022-08-04T11:10:25.483Z,4.20
2022-08-04T11:13:03.354Z,4.38
2022-08-04T11:15:49.614Z,4.43
2022-08-04T11:19:07.802Z,4.00
2022-08-04T11:21:44.810Z,4.00
2022-08-04T11:24:26.373Z,4.15
2022-08-04T11:27:05.176Z,3.67
2022-08-04T11:30:09.476Z,3.83
2022-08-04T11:32:46.442Z,4.07
2022-08-04T11:35:43.322Z,3.38
2022-08-04T11:38:52.058Z,3.55
2022-08-04T11:41:33.773Z,3.60
2022-08-04T11:44:09.169Z,3.65
2022-08-04T11:46:53.005Z,3.80
2022-08-04T11:49:56.570Z,3.28
2022-08-04T11:52:28.537Z,3.30
2022-08-04T11:54:58.007Z,3.38
2022-08-04T11:57:35.703Z,2.88
2022-08-04T12:00:12.685Z,3.50
2022-08-04T12:03:19.554Z,3.40
2022-08-04T12:05:52.357Z,3.40
2022-08-04T12:08:43.371Z,3.88
2022-08-04T12:11:28.598Z,3.35
2022-08-04T12:14:27.385Z,3.63
2022-08-04T12:17:05.504Z,3.55
2022-08-04T12:20:04.894Z,3.40
2022-08-04T12:22:50.233Z,3.47
2022-08-04T12:25:33.144Z,3.55
2022-08-04T12:28:08.421Z,3.80
2022-08-04T12:30:58.484Z,3.60
2022-08-04T12:34:04.694Z,3.40
2022-08-04T12:37:09.592Z,3.10
2022-08-04T12:40:27.934Z,2.92
2022-08-04T12:43:13.718Z,3.20
2022-08-04T12:45:49.042Z,3.50
2022-08-04T12:48:22.630Z,2.95
2022-08-04T12:50:54.211Z,2.90
2022-08-04T12:53:31.496Z,3.13
2022-08-04T12:56:02.780Z,3.13
2022-08-04T12:58:42.633Z,3.15
2022-08-04T13:02:09.426Z,3.47
2022-08-04T13:04:20.241Z,3.30
2022-08-04T13:06:57.838Z,3.65
2022-08-04T13:09:29.899Z,3.22
2022-08-04T13:12:02.036Z,3.50
2022-08-04T13:14:36.423Z,3.17
2022-08-04T13:17:04.304Z,3.10
2022-08-04T13:19:33.857Z,3.72
2022-08-04T13:22:09.430Z,3.25
2022-08-04T13:24:56.901Z,3.28
2022-08-04T13:27:29.128Z,3.65
2022-08-04T13:30:14.716Z,3.88
2022-08-04T13:32:57.747Z,3.38
2022-08-04T13:35:55.717Z,3.33
2022-08-04T13:38:18.980Z,3.28
2022-08-04T13:40:48.297Z,3.42
2022-08-04T13:44:15.455Z,3.30
2022-08-04T13:46:28.267Z,3.30
2022-08-04T13:52:04.633Z,3.30
2022-08-04T13:54:45.934Z,3.50
2022-08-04T13:57:44.197Z,3.30
2022-08-04T14:00:12.653Z,3.08
2022-08-04T14:03:03.013Z,3.65
2022-08-04T14:05:36.982Z,3.53
2022-08-04T14:08:29.095Z,3.10
2022-08-04T14:10:59.993Z,3.70
2022-08-04T14:13:41.499Z,3.60
2022-08-04T14:16:22.094Z,3.42
2022-08-04T14:19:00.873Z,3.78
2022-08-04T14:21:28.642Z,3.42
2022-08-04T14:23:57.685Z,3.15
2022-08-04T14:26:33.857Z,3.33
2022-08-04T14:29:27.628Z,3.33
2022-08-04T14:32:13.974Z,3.47
2022-08-04T14:34:45.937Z,3.20
2022-08-04T14:37:19.719Z,3.50
2022-08-04T14:40:08.441Z,3.30
2022-08-04T14:42:55.452Z,3.83
2022-08-04T14:45:54.251Z,4.18
2022-08-04T14:48:23.742Z,4.00
2022-08-04T14:50:52.225Z,3.30
2022-08-04T14:53:23.584Z,3.78
2022-08-04T14:55:58.985Z,3.78
2022-08-04T14:58:39.058Z,3.80
2022-08-04T15:01:12.892Z,3.53
2022-08-04T15:03:50.900Z,3.70
2022-08-04T15:06:28.568Z,3.00
2022-08-04T15:13:07.363Z,4.40
2022-08-04T15:15:37.297Z,4.40
2022-08-04T15:22:05.346Z,4.47
2022-08-04T15:24:41.910Z,3.80
2022-08-04T15:27:11.725Z,4.20
2022-08-04T15:30:00.804Z,4.15
2022-08-04T15:36:27.946Z,4.18
2022-08-04T15:43:33.174Z,3.72
2022-08-04T15:46:33.080Z,3.92
2022-08-04T15:48:50.661Z,3.85
2022-08-04T15:51:32.083Z,3.85
2022-08-04T15:54:56.466Z,3.78
2022-08-04T15:58:02.237Z,3.80
2022-08-04T16:00:49.634Z,4.00
2022-08-04T16:04:00.277Z,3.78
2022-08-04T16:06:22.579Z,4.15
2022-08-04T16:08:57.385Z,4.00
2022-08-04T16:11:30.804Z,4.03
2022-08-04T16:14:01.552Z,4.20
2022-08-04T16:16:49.286Z,4.22
2022-08-04T16:20:01.745Z,4.05
2022-08-04T16:22:39.885Z,4.28
2022-08-04T16:25:11.490Z,4.40
2022-08-04T16:27:44.769Z,4.13
2022-08-04T16:30:15.225Z,4.30
2022-08-04T16:32:48.083Z,3.75
2022-08-04T16:35:28.405Z,4.00
2022-08-04T16:38:14.950Z,4.20
2022-08-04T16:40:43.269Z,4.20
2022-08-04T16:43:17.118Z,4.03
2022-08-04T16:45:51.925Z,4.45
2022-08-04T16:48:32.200Z,3.80
2022-08-04T16:51:10.813Z,4.20
2022-08-04T16:53:58.696Z,4.45
2022-08-04T16:56:35.372Z,4.35
2022-08-04T16:59:12.333Z,4.28
2022-08-04T17:01:52.695Z,4.68
2022-08-04T17:04:35.072Z,4.40
2022-08-04T17:07:06.015Z,4.32
2022-08-04T17:09:33.502Z,4.35
2022-08-04T17:12:00.751Z,4.45
2022-08-04T17:14:31.270Z,4.10
2022-08-04T17:17:02.508Z,4.43
2022-08-04T17:19:29.769Z,4.10
2022-08-04T17:22:07.216Z,4.63
2022-08-04T17:24:41.331Z,4.57
2022-08-04T17:28:19.521Z,4.43
2022-08-04T17:29:58.119Z,4.53
2022-08-04T17:32:25.538Z,4.47
2022-08-04T17:35:00.437Z,4.70
2022-08-04T17:40:25.409Z,4.78
2022-08-04T17:44:03.015Z,4.68
2022-08-04T17:46:28.933Z,4.20
2022-08-04T17:49:31.268Z,4.50
2022-08-04T17:52:41.506Z,4.60
2022-08-04T17:55:13.653Z,4.68
2022-08-04T17:57:52.671Z,4.78
2022-08-04T18:00:20.375Z,4.50
2022-08-04T18:02:54.722Z,4.75
2022-08-04T18:05:50.133Z,4.60
2022-08-04T18:11:03.989Z,4.50
2022-08-04T18:13:42.849Z,4.70
2022-08-04T18:16:22.301Z,4.38
2022-08-04T18:19:14.526Z,4.65
2022-08-04T18:21:46.987Z,4.50
2022-08-04T18:24:56.248Z,4.38
2022-08-04T18:27:29.911Z,4.60
2022-08-04T18:30:33.544Z,4.38
2022-08-04T18:33:16.813Z,4.53
2022-08-04T18:36:33.572Z,4.57
2022-08-04T18:38:24.337Z,5.13
2022-08-04T18:40:54.687Z,4.80
2022-08-04T18:43:28.433Z,4.40
2022-08-04T18:45:59.315Z,4.47
2022-08-04T18:48:36.276Z,4.82
2022-08-04T18:51:10.988Z,5.00
2022-08-04T18:53:55.215Z,4.80
2022-08-04T18:56:32.706Z,4.80
2022-08-04T19:02:13.573Z,4.90
2022-08-04T19:04:55.817Z,4.90
2022-08-04T19:07:34.320Z,5.07
2022-08-04T19:10:26.802Z,4.57
2022-08-04T19:13:02.220Z,4.70
2022-08-04T19:15:34.592Z,4.82
2022-08-04T19:18:06.931Z,5.32
2022-08-04T19:20:37.107Z,4.85
2022-08-04T19:24:27.131Z,5.43
2022-08-04T19:25:58.668Z,4.55
2022-08-04T19:28:34.845Z,5.00
2022-08-04T19:31:10.617Z,4.72
2022-08-04T19:33:59.136Z,5.13
2022-08-04T19:36:32.780Z,5.45
2022-08-04T19:39:11.534Z,5.35
2022-08-04T19:42:04.411Z,4.97
2022-08-04T19:44:29.884Z,4.97
2022-08-04T19:47:02.246Z,5.07
2022-08-04T19:50:04.023Z,4.43
2022-08-04T19:52:34.197Z,4.70
2022-08-04T19:55:10.018Z,4.90
2022-08-04T19:57:39.797Z,5.07
2022-08-04T20:00:10.068Z,5.13
2022-08-04T20:02:38.032Z,5.53
2022-08-04T20:05:08.759Z,5.07
2022-08-04T20:07:36.612Z,5.00
2022-08-04T20:10:07.748Z,4.97
2022-08-04T20:12:42.206Z,5.05
2022-08-04T20:15:11.072Z,4.93
2022-08-04T20:18:08.391Z,4.88
2022-08-04T20:20:30.399Z,4.85
2022-08-04T20:22:57.650Z,5.05
2022-08-04T20:25:36.533Z,5.20
2022-08-04T20:28:05.524Z,5.28
2022-08-04T20:30:33.287Z,5.22
2022-08-04T20:33:00.509Z,5.30
2022-08-04T20:35:31.724Z,4.70
2022-08-04T20:38:33.755Z,5.47
2022-08-04T20:41:00.619Z,5.50
2022-08-04T20:43:31.268Z,5.32
2022-08-04T20:45:59.491Z,5.32
2022-08-04T20:48:33.535Z,5.60
2022-08-04T20:51:01.362Z,5.78
2022-08-04T20:53:46.610Z,6.07
2022-08-04T20:56:19.297Z,6.20
2022-08-04T20:58:57.702Z,6.05
2022-08-04T21:01:29.603Z,5.70
2022-08-04T21:04:00.628Z,5.50
2022-08-04T21:06:28.133Z,5.80
2022-08-04T21:08:57.073Z,5.30
2022-08-04T21:11:25.149Z,5.60
2022-08-04T21:14:00.757Z,5.40
2022-08-04T21:16:55.187Z,5.22
2022-08-04T21:19:15.457Z,5.07
2022-08-04T21:21:42.777Z,5.28
2022-08-04T21:24:13.515Z,5.35
2022-08-04T21:26:42.933Z,4.88
2022-08-04T21:29:13.600Z,4.82
2022-08-04T21:31:51.019Z,4.95
2022-08-04T21:34:38.124Z,5.22
2022-08-04T21:37:10.456Z,5.00
2022-08-04T21:39:58.926Z,5.13
2022-08-04T21:42:28.878Z,5.22
2022-08-04T21:44:58.329Z,5.25
2022-08-04T21:47:25.698Z,5.05
2022-08-04T21:49:56.535Z,5.07
2022-08-04T21:52:25.278Z,5.55
2022-08-04T21:54:54.577Z,5.53
2022-08-04T21:57:24.768Z,5.32
2022-08-04T21:59:53.006Z,5.40
2022-08-04T22:02:20.388Z,5.25
2022-08-04T22:04:47.667Z,4.82
2022-08-04T22:07:16.378Z,5.05
2022-08-04T22:09:45.667Z,5.10
2022-08-04T22:12:29.941Z,4.90
2022-08-04T22:14:59.585Z,5.45
2022-08-04T22:17:35.256Z,4.70
2022-08-04T22:20:04.565Z,5.10
2022-08-04T22:22:36.493Z,5.03
2022-08-04T22:25:13.264Z,5.50
2022-08-04T22:27:42.642Z,5.70
2022-08-04T22:30:17.385Z,5.47
2022-08-04T22:32:50.371Z,5.47
2022-08-04T22:35:36.063Z,5.47
2022-08-04T22:38:25.363Z,5.45
2022-08-04T22:41:04.796Z,5.70
2022-08-04T22:43:34.565Z,5.25
2022-08-04T22:46:12.026Z,5.60
2022-08-04T22:48:43.719Z,5.35
2022-08-04T22:51:12.992Z,5.30
2022-08-04T22:53:41.165Z,5.32
2022-08-04T22:56:10.615Z,5.43
2022-08-04T22:58:50.997Z,5.35
2022-08-04T23:01:19.510Z,5.95
2022-08-04T23:03:51.128Z,5.35
2022-08-04T23:06:25.179Z,5.30
2022-08-04T23:08:53.238Z,5.85
2022-08-04T23:11:21.195Z,5.57
2022-08-04T23:13:49.155Z,5.82
2022-08-04T23:16:16.969Z,5.75
2022-08-04T23:18:48.947Z,5.13
2022-08-04T23:21:17.197Z,5.65
2022-08-04T23:24:00.941Z,5.60
2022-08-04T23:26:30.906Z,5.30
2022-08-04T23:28:58.599Z,5.30
2022-08-04T23:31:40.384Z,6.18
2022-08-04T23:34:09.474Z,6.07
2022-08-04T23:36:40.709Z,5.90
2022-08-04T23:39:08.214Z,5.75
2022-08-04T23:41:54.186Z,5.32
2022-08-04T23:44:26.931Z,5.47
2022-08-04T23:47:02.725Z,5.60
2022-08-04T23:49:43.457Z,5.60
2022-08-04T23:52:23.204Z,5.38
2022-08-04T23:54:55.320Z,5.65
2022-08-04T23:57:22.742Z,5.60
2022-08-04T23:59:54.941Z,6.25
